createdAt,value
2023-04-29T00:01:52.836Z,1.60
2023-04-29T00:04:20.642Z,1.70
2023-04-29T00:06:48.041Z,1.30
2023-04-29T00:09:15.391Z,1.70
2023-04-29T00:11:42.437Z,2.10
2023-04-29T00:14:10.187Z,2.50
2023-04-29T00:16:38.046Z,2.20
2023-04-29T00:19:05.418Z,2.80
2023-04-29T00:21:33.531Z,2.80
2023-04-29T00:24:00.999Z,2.10
2023-04-29T00:26:28.760Z,1.60
2023-04-29T00:28:56.032Z,1.90
2023-04-29T00:31:23.136Z,1.30
2023-04-29T00:33:50.254Z,2.00
2023-04-29T00:36:17.369Z,2.30
2023-04-29T00:38:44.552Z,2.20
2023-04-29T00:41:12.176Z,1.80
2023-04-29T00:43:39.681Z,1.90
2023-04-29T00:46:06.854Z,1.80
2023-04-29T00:48:34.841Z,2.00
2023-04-29T00:51:02.353Z,1.20
2023-04-29T00:53:29.683Z,1.90
2023-04-29T00:55:56.760Z,2.00
2023-04-29T00:58:30.459Z,1.60
2023-04-29T01:00:57.557Z,1.60
2023-04-29T01:03:25.034Z,2.00
2023-04-29T01:05:55.977Z,1.90
2023-04-29T01:08:35.581Z,2.00
2023-04-29T01:11:07.370Z,2.30
2023-04-29T01:13:35.675Z,2.10
2023-04-29T01:16:09.931Z,2.40
2023-04-29T01:18:37.451Z,2.10
2023-04-29T01:21:05.259Z,2.00
2023-04-29T01:23:32.291Z,2.10
2023-04-29T01:25:59.441Z,2.10
2023-04-29T01:29:04.425Z,2.30
2023-04-29T01:31:32.178Z,2.40
2023-04-29T01:34:06.440Z,2.10
2023-04-29T01:36:54.342Z,2.20
2023-04-29T01:39:33.795Z,2.30
2023-04-29T01:42:17.494Z,2.10
2023-04-29T01:44:45.649Z,2.20
2023-04-29T01:47:14.052Z,2.40
2023-04-29T01:49:47.109Z,2.40
2023-04-29T01:52:14.166Z,2.00
2023-04-29T01:54:44.791Z,2.40
2023-04-29T01:57:11.933Z,2.40
2023-04-29T01:59:54.976Z,2.30
2023-04-29T02:02:31.634Z,2.50
2023-04-29T02:05:05.628Z,2.10
2023-04-29T02:07:32.699Z,2.00
2023-04-29T02:09:59.831Z,2.40
2023-04-29T02:12:27.072Z,2.10
2023-04-29T02:14:54.537Z,2.10
2023-04-29T02:17:21.987Z,2.60
2023-04-29T02:19:49.232Z,2.20
2023-04-29T02:22:16.426Z,3.00
2023-04-29T02:24:44.076Z,2.50
2023-04-29T02:27:11.292Z,2.20
2023-04-29T02:29:38.303Z,2.20
2023-04-29T02:32:06.567Z,2.00
2023-04-29T02:34:34.080Z,1.80
2023-04-29T02:37:01.290Z,1.80
2023-04-29T02:39:28.984Z,2.00
2023-04-29T02:41:56.597Z,1.80
2023-04-29T02:44:23.683Z,1.80
2023-04-29T02:46:51.094Z,2.00
2023-04-29T02:49:18.218Z,1.50
2023-04-29T02:51:45.871Z,1.70
2023-04-29T02:54:13.558Z,1.70
2023-04-29T02:56:40.642Z,1.70
2023-04-29T02:59:07.733Z,2.20
2023-04-29T03:01:34.840Z,1.90
2023-04-29T03:04:02.216Z,2.10
2023-04-29T03:06:29.596Z,1.80
2023-04-29T03:08:57.578Z,2.10
2023-04-29T03:11:25.065Z,2.10
2023-04-29T03:13:59.313Z,1.60
2023-04-29T03:16:28.990Z,1.80
2023-04-29T03:18:56.198Z,1.70
2023-04-29T03:21:25.651Z,1.60
2023-04-29T03:23:52.848Z,1.90
2023-04-29T03:26:25.185Z,2.20
2023-04-29T03:28:52.211Z,2.50
2023-04-29T03:31:21.425Z,2.40
2023-04-29T03:33:51.321Z,2.30
2023-04-29T03:36:20.392Z,2.20
2023-04-29T03:38:54.012Z,2.40
2023-04-29T03:41:21.469Z,2.60
2023-04-29T03:43:48.688Z,2.60
2023-04-29T03:46:15.940Z,2.50
2023-04-29T03:48:43.495Z,2.70
2023-04-29T03:51:11.219Z,2.10
2023-04-29T03:53:38.400Z,2.00
2023-04-29T03:56:05.677Z,2.20
2023-04-29T03:58:33.043Z,2.40
2023-04-29T04:01:00.198Z,2.90
2023-04-29T04:03:32.971Z,2.20
2023-04-29T04:06:00.409Z,1.80
2023-04-29T04:08:28.036Z,1.70
2023-04-29T04:11:03.227Z,2.30
2023-04-29T04:13:38.202Z,2.10
2023-04-29T04:16:05.863Z,2.30
2023-04-29T04:18:33.145Z,2.10
2023-04-29T04:21:05.550Z,2.80
2023-04-29T04:23:32.700Z,2.20
2023-04-29T04:26:01.036Z,2.80
2023-04-29T04:28:48.322Z,3.00
2023-04-29T04:31:27.929Z,3.80
2023-04-29T04:33:56.335Z,3.60
2023-04-29T04:36:23.896Z,3.80
2023-04-29T04:38:51.087Z,3.10
2023-04-29T04:41:18.396Z,3.80
2023-04-29T04:43:48.017Z,3.10
2023-04-29T04:46:33.544Z,2.90
2023-04-29T04:49:27.585Z,2.90
2023-04-29T04:51:54.757Z,2.80
2023-04-29T04:54:21.885Z,2.70
2023-04-29T04:56:52.561Z,2.40
2023-04-29T04:59:21.255Z,2.20
2023-04-29T05:01:48.294Z,2.10
2023-04-29T05:04:15.944Z,1.90
2023-04-29T05:06:43.347Z,2.20
2023-04-29T05:09:11.209Z,2.20
2023-04-29T05:11:38.685Z,1.60
2023-04-29T05:14:13.312Z,1.70
2023-04-29T05:16:42.501Z,1.50
2023-04-29T05:19:12.177Z,1.80
2023-04-29T05:21:40.716Z,1.60
2023-04-29T05:24:10.696Z,2.00
2023-04-29T05:26:38.578Z,1.70
2023-04-29T05:29:06.630Z,2.00
2023-04-29T05:31:40.618Z,2.10
2023-04-29T05:34:08.676Z,2.20
2023-04-29T05:36:36.024Z,1.80
2023-04-29T05:39:04.792Z,1.30
2023-04-29T05:41:31.952Z,2.10
2023-04-29T05:44:21.976Z,1.70
2023-04-29T05:46:49.170Z,1.50
2023-04-29T05:49:16.946Z,1.50
2023-04-29T05:51:44.446Z,1.80
2023-04-29T05:54:11.626Z,1.50
2023-04-29T05:56:39.054Z,1.70
2023-04-29T05:59:06.145Z,1.80
2023-04-29T06:01:33.396Z,2.00
2023-04-29T06:04:00.843Z,1.90
2023-04-29T06:06:35.728Z,1.70
2023-04-29T06:09:19.926Z,1.70
2023-04-29T06:11:54.805Z,1.90
2023-04-29T06:14:21.977Z,1.60
2023-04-29T06:16:49.862Z,2.80
2023-04-29T06:19:17.066Z,2.20
2023-04-29T06:21:44.233Z,2.30
2023-04-29T06:24:11.681Z,2.60
2023-04-29T06:26:38.838Z,2.10
2023-04-29T06:29:05.931Z,1.90
2023-04-29T06:31:33.252Z,2.00
2023-04-29T06:34:03.845Z,1.90
2023-04-29T06:36:32.691Z,1.70
2023-04-29T06:39:18.397Z,2.10
2023-04-29T06:42:09.041Z,1.80
2023-04-29T06:44:54.736Z,2.10
2023-04-29T06:47:36.938Z,2.00
2023-04-29T06:50:12.265Z,2.20
2023-04-29T06:52:39.532Z,1.90
2023-04-29T06:55:07.243Z,2.40
2023-04-29T06:57:37.397Z,1.90
2023-04-29T07:00:05.223Z,2.10
2023-04-29T07:02:32.874Z,2.20
2023-04-29T07:05:02.051Z,2.70
2023-04-29T07:07:29.285Z,2.40
2023-04-29T07:09:57.815Z,2.60
2023-04-29T07:12:24.935Z,2.50
2023-04-29T07:14:54.733Z,2.50
2023-04-29T07:17:24.187Z,2.40
2023-04-29T07:19:51.905Z,2.30
2023-04-29T07:22:19.815Z,2.30
2023-04-29T07:24:46.934Z,2.40
2023-04-29T07:27:14.259Z,2.40
2023-04-29T07:29:41.966Z,2.50
2023-04-29T07:32:09.295Z,2.50
2023-04-29T07:34:38.439Z,1.80
2023-04-29T07:37:05.628Z,1.80
2023-04-29T07:39:32.914Z,2.80
2023-04-29T07:42:00.560Z,2.90
2023-04-29T07:44:27.973Z,2.40
2023-04-29T07:46:55.351Z,2.40
2023-04-29T07:49:23.827Z,2.40
2023-04-29T07:51:51.679Z,2.60
2023-04-29T07:54:20.384Z,3.20
2023-04-29T07:56:48.866Z,3.20
2023-04-29T07:59:16.123Z,3.50
2023-04-29T08:01:43.410Z,3.30
2023-04-29T08:04:11.765Z,3.20
2023-04-29T08:06:49.177Z,3.40
2023-04-29T08:09:16.859Z,3.20
2023-04-29T08:11:45.237Z,3.50
2023-04-29T08:14:13.668Z,3.80
2023-04-29T08:16:41.649Z,3.00
2023-04-29T08:19:09.500Z,4.40
2023-04-29T08:21:36.678Z,4.00
2023-04-29T08:24:03.909Z,3.50
2023-04-29T08:26:31.581Z,4.00
2023-04-29T08:28:58.792Z,4.00
2023-04-29T08:31:26.317Z,3.60
2023-04-29T08:33:53.634Z,3.30
2023-04-29T08:36:20.795Z,4.00
2023-04-29T08:38:49.137Z,4.30
2023-04-29T08:41:17.244Z,3.60
2023-04-29T08:43:44.465Z,3.80
2023-04-29T08:46:11.655Z,3.40
2023-04-29T08:48:42.514Z,3.30
2023-04-29T08:51:16.060Z,4.00
2023-04-29T08:53:43.309Z,3.60
2023-04-29T08:56:14.217Z,3.20
2023-04-29T08:58:41.469Z,3.00
2023-04-29T09:01:09.955Z,3.30
2023-04-29T09:03:57.560Z,4.00
2023-04-29T09:06:25.152Z,3.70
2023-04-29T09:08:52.271Z,3.00
2023-04-29T09:11:19.428Z,3.50
2023-04-29T09:13:46.556Z,3.80
2023-04-29T09:16:13.634Z,4.70
2023-04-29T09:18:50.738Z,3.40
2023-04-29T09:21:22.689Z,4.00
2023-04-29T09:23:50.988Z,4.30
2023-04-29T09:26:18.109Z,3.50
2023-04-29T09:28:47.965Z,3.60
2023-04-29T09:31:27.609Z,4.00
2023-04-29T09:33:55.504Z,3.20
2023-04-29T09:36:42.906Z,3.10
2023-04-29T09:39:13.972Z,4.20
2023-04-29T09:41:53.528Z,4.20
2023-04-29T09:44:24.288Z,4.30
2023-04-29T09:47:04.711Z,4.10
2023-04-29T09:49:33.061Z,5.20
2023-04-29T09:52:00.847Z,4.60
2023-04-29T09:54:28.822Z,4.40
2023-04-29T09:56:56.385Z,4.40
2023-04-29T09:59:23.943Z,5.20
2023-04-29T10:02:00.416Z,5.70
2023-04-29T10:04:28.162Z,5.70
2023-04-29T10:06:56.019Z,4.80
2023-04-29T10:09:24.226Z,4.20
2023-04-29T10:11:52.234Z,3.60
2023-04-29T10:14:20.850Z,4.20
2023-04-29T10:16:48.538Z,3.30
2023-04-29T10:19:16.554Z,4.50
2023-04-29T10:21:43.749Z,4.40
2023-04-29T10:24:10.908Z,3.40
2023-04-29T10:26:38.090Z,3.60
2023-04-29T10:29:05.397Z,3.70
2023-04-29T10:31:32.933Z,3.60
2023-04-29T10:34:02.220Z,3.80
2023-04-29T10:36:30.655Z,4.20
2023-04-29T10:38:59.063Z,4.00
2023-04-29T10:41:30.892Z,3.80
2023-04-29T10:43:59.256Z,4.20
2023-04-29T10:46:29.421Z,4.70
2023-04-29T10:48:57.959Z,4.20
2023-04-29T10:51:33.699Z,4.40
2023-04-29T10:54:15.092Z,5.60
2023-04-29T10:56:43.272Z,5.00
2023-04-29T10:59:11.452Z,5.40
2023-04-29T11:01:42.625Z,5.20
2023-04-29T11:04:11.350Z,7.10
2023-04-29T11:06:40.354Z,7.30
2023-04-29T11:09:12.624Z,8.30
2023-04-29T11:11:44.206Z,8.10
2023-04-29T11:14:12.326Z,7.80
2023-04-29T11:16:47.069Z,7.20
2023-04-29T11:19:15.205Z,8.30
2023-04-29T11:21:44.802Z,10.70
2023-04-29T11:24:13.252Z,7.30
2023-04-29T11:26:40.399Z,8.60
2023-04-29T11:29:10.716Z,7.70
2023-04-29T11:31:39.860Z,7.00
2023-04-29T11:34:08.977Z,6.20
2023-04-29T11:36:37.069Z,6.30
2023-04-29T11:39:04.389Z,7.10
2023-04-29T11:41:32.003Z,9.40
2023-04-29T11:43:59.771Z,8.40
2023-04-29T11:46:29.191Z,8.80
2023-04-29T11:48:57.918Z,9.80
2023-04-29T11:51:25.086Z,8.70
2023-04-29T11:53:57.315Z,8.90
2023-04-29T11:56:25.860Z,9.70
2023-04-29T11:58:58.232Z,8.60
2023-04-29T12:01:27.541Z,8.00
2023-04-29T12:04:02.990Z,7.80
2023-04-29T12:06:30.832Z,7.60
2023-04-29T12:09:01.934Z,7.40
2023-04-29T12:11:29.463Z,7.60
2023-04-29T12:13:57.228Z,8.90
2023-04-29T12:16:29.942Z,8.40
2023-04-29T12:18:58.894Z,8.40
2023-04-29T12:21:27.790Z,8.00
2023-04-29T12:23:58.821Z,9.20
2023-04-29T12:26:28.179Z,6.30
2023-04-29T12:28:55.870Z,8.10
2023-04-29T12:31:24.512Z,6.70
2023-04-29T12:33:54.301Z,6.00
2023-04-29T12:36:22.438Z,5.10
2023-04-29T12:38:50.350Z,5.10
2023-04-29T12:41:17.822Z,4.50
2023-04-29T12:43:45.256Z,3.80
2023-04-29T12:46:15.498Z,3.70
2023-04-29T12:48:44.072Z,3.20
2023-04-29T12:51:12.042Z,3.20
2023-04-29T12:53:39.531Z,3.20
2023-04-29T12:56:07.018Z,3.00
2023-04-29T12:58:37.203Z,3.40
2023-04-29T13:01:04.668Z,2.90
2023-04-29T13:03:33.555Z,3.90
2023-04-29T13:06:01.645Z,4.40
2023-04-29T13:08:29.015Z,4.90
2023-04-29T13:10:56.292Z,4.80
2023-04-29T13:13:26.461Z,4.80
2023-04-29T13:15:53.673Z,5.10
2023-04-29T13:18:20.916Z,5.40
2023-04-29T13:20:48.206Z,5.40
2023-04-29T13:23:15.678Z,4.70
2023-04-29T13:25:43.216Z,5.60
2023-04-29T13:28:10.396Z,5.10
2023-04-29T13:30:37.709Z,5.10
2023-04-29T13:33:11.641Z,4.50
2023-04-29T13:35:41.935Z,4.60
2023-04-29T13:38:09.461Z,5.40
2023-04-29T13:40:40.927Z,4.90
2023-04-29T13:43:15.463Z,4.20
2023-04-29T13:45:48.050Z,5.60
2023-04-29T13:48:26.009Z,4.20
2023-04-29T13:54:05.735Z,4.10
2023-04-29T14:03:51.078Z,3.60
2023-04-29T14:06:19.503Z,4.20
2023-04-29T14:08:47.353Z,4.00
2023-04-29T14:11:18.960Z,3.10
2023-04-29T14:13:46.206Z,2.80
2023-04-29T14:16:13.340Z,3.00
2023-04-29T14:18:40.652Z,3.30
2023-04-29T14:21:08.012Z,3.00
2023-04-29T14:23:35.323Z,3.10
2023-04-29T14:26:22.526Z,3.60
2023-04-29T14:29:01.395Z,3.50
2023-04-29T14:31:29.474Z,3.50
2023-04-29T14:33:57.064Z,4.00
2023-04-29T14:36:24.277Z,3.90
2023-04-29T14:38:52.003Z,3.70
2023-04-29T14:41:19.224Z,3.20
2023-04-29T14:43:46.914Z,3.80
2023-04-29T14:46:14.112Z,3.70
2023-04-29T14:48:41.290Z,3.90
2023-04-29T14:51:08.472Z,4.10
2023-04-29T14:53:35.719Z,4.20
2023-04-29T14:56:03.938Z,3.80
2023-04-29T14:58:31.331Z,3.80
2023-04-29T15:00:58.592Z,4.30
2023-04-29T15:03:26.025Z,3.30
2023-04-29T15:05:53.420Z,4.00
2023-04-29T15:08:20.758Z,3.50
2023-04-29T15:10:48.208Z,3.30
2023-04-29T15:13:15.359Z,3.00
2023-04-29T15:15:42.649Z,3.40
2023-04-29T15:18:10.005Z,2.60
2023-04-29T15:20:37.591Z,3.30
2023-04-29T15:23:05.691Z,4.20
2023-04-29T15:25:36.368Z,5.10
2023-04-29T15:28:04.983Z,3.70
2023-04-29T15:30:32.309Z,4.50
2023-04-29T15:32:59.548Z,5.70
2023-04-29T15:35:26.691Z,4.80
2023-04-29T15:37:54.054Z,4.90
2023-04-29T15:40:21.361Z,4.30
2023-04-29T15:42:48.712Z,4.00
2023-04-29T15:45:17.224Z,4.00
2023-04-29T15:47:44.566Z,5.10
2023-04-29T15:50:11.803Z,4.70
2023-04-29T15:52:38.966Z,3.40
2023-04-29T15:55:06.802Z,3.60
2023-04-29T15:57:35.028Z,5.90
2023-04-29T16:00:02.384Z,4.60
2023-04-29T16:02:32.450Z,4.10
2023-04-29T16:04:59.531Z,4.40
2023-04-29T16:07:26.531Z,3.20
2023-04-29T16:09:53.885Z,4.30
2023-04-29T16:12:21.193Z,3.00
2023-04-29T16:14:50.449Z,3.20
2023-04-29T16:17:17.636Z,3.40
2023-04-29T16:19:45.222Z,2.90
2023-04-29T16:22:13.426Z,2.90
2023-04-29T16:24:41.600Z,3.20
2023-04-29T16:27:09.093Z,2.60
2023-04-29T16:29:38.077Z,2.50
2023-04-29T16:32:05.656Z,6.20
2023-04-29T16:34:32.822Z,3.20
2023-04-29T16:37:00.028Z,2.50
2023-04-29T16:39:27.214Z,2.50
2023-04-29T16:41:54.433Z,3.10
2023-04-29T16:44:21.812Z,2.90
2023-04-29T16:46:49.054Z,3.20
2023-04-29T16:49:16.164Z,2.80
2023-04-29T16:51:43.378Z,3.10
2023-04-29T16:54:10.555Z,3.50
2023-04-29T16:56:37.768Z,3.90
2023-04-29T16:59:04.924Z,4.10
2023-04-29T17:01:32.402Z,4.40
2023-04-29T17:04:00.055Z,5.20
2023-04-29T17:06:28.089Z,4.40
2023-04-29T17:08:55.421Z,3.90
2023-04-29T17:11:22.607Z,4.00
2023-04-29T17:13:50.789Z,5.10
2023-04-29T17:16:18.057Z,4.10
2023-04-29T17:18:45.343Z,4.70
2023-04-29T17:21:12.565Z,4.00
2023-04-29T17:23:39.648Z,3.40
2023-04-29T17:26:07.712Z,3.20
2023-04-29T17:28:35.323Z,3.50
2023-04-29T17:31:02.719Z,3.20
2023-04-29T17:33:34.889Z,3.80
2023-04-29T17:36:02.574Z,3.90
2023-04-29T17:38:29.922Z,3.10
2023-04-29T17:40:59.185Z,3.50
2023-04-29T17:43:27.622Z,3.30
2023-04-29T17:45:54.950Z,3.50
2023-04-29T17:48:22.838Z,3.50
2023-04-29T17:50:51.770Z,4.20
2023-04-29T17:53:19.091Z,3.30
2023-04-29T17:55:46.422Z,3.20
2023-04-29T17:58:13.963Z,3.40
2023-04-29T18:00:42.074Z,3.20
2023-04-29T18:03:10.359Z,2.90
2023-04-29T18:05:38.091Z,3.60
2023-04-29T18:08:05.895Z,2.70
2023-04-29T18:10:33.075Z,3.50
2023-04-29T18:13:00.162Z,3.40
2023-04-29T18:15:27.247Z,3.60
2023-04-29T18:17:54.698Z,3.60
2023-04-29T18:20:22.675Z,3.80
2023-04-29T18:22:50.844Z,4.10
2023-04-29T18:25:18.130Z,4.00
2023-04-29T18:27:45.531Z,4.30
2023-04-29T18:30:12.990Z,3.60
2023-04-29T18:32:41.985Z,3.30
2023-04-29T18:35:09.617Z,3.80
2023-04-29T18:37:36.778Z,3.70
2023-04-29T18:40:06.021Z,4.30
2023-04-29T18:42:35.783Z,5.50
2023-04-29T18:45:04.020Z,5.20
2023-04-29T18:47:31.284Z,4.60
2023-04-29T18:49:58.826Z,3.80
2023-04-29T18:52:26.958Z,3.30
2023-04-29T18:54:54.114Z,3.50
2023-04-29T18:57:21.282Z,4.40
2023-04-29T18:59:48.492Z,2.80
2023-04-29T19:02:15.608Z,3.30
2023-04-29T19:04:42.813Z,3.10
2023-04-29T19:07:10.068Z,2.90
2023-04-29T19:09:37.349Z,2.60
2023-04-29T19:12:05.210Z,2.90
2023-04-29T19:14:34.402Z,2.40
2023-04-29T19:17:03.448Z,3.30
2023-04-29T19:19:31.319Z,3.70
2023-04-29T19:21:58.537Z,2.90
2023-04-29T19:24:26.233Z,2.90
2023-04-29T19:26:53.750Z,2.90
2023-04-29T19:29:20.970Z,2.30
2023-04-29T19:31:48.123Z,4.90
2023-04-29T19:34:15.471Z,3.20
2023-04-29T19:36:42.725Z,2.50
2023-04-29T19:39:11.244Z,2.50
2023-04-29T19:41:40.240Z,2.20
2023-04-29T19:44:08.539Z,2.30
2023-04-29T19:46:37.240Z,2.70
2023-04-29T19:49:16.249Z,2.50
2023-04-29T19:51:44.015Z,2.80
2023-04-29T19:54:12.569Z,2.50
2023-04-29T19:56:41.784Z,2.80
2023-04-29T19:59:13.817Z,2.50
2023-04-29T20:01:42.928Z,2.50
2023-04-29T20:04:12.560Z,2.70
2023-04-29T20:06:40.383Z,2.60
2023-04-29T20:09:09.751Z,2.70
2023-04-29T20:11:38.188Z,2.60
2023-04-29T20:14:05.550Z,3.00
2023-04-29T20:16:35.873Z,3.70
2023-04-29T20:19:03.192Z,3.50
2023-04-29T20:21:30.414Z,2.90
2023-04-29T20:23:57.672Z,4.20
2023-04-29T20:26:24.976Z,3.00
2023-04-29T20:28:52.255Z,4.10
2023-04-29T20:31:19.457Z,3.50
2023-04-29T20:33:47.310Z,4.80
2023-04-29T20:36:14.615Z,4.40
2023-04-29T20:38:41.984Z,5.90
2023-04-29T20:41:09.271Z,4.20
2023-04-29T20:43:36.534Z,4.00
2023-04-29T20:46:04.128Z,4.10
2023-04-29T20:48:31.534Z,4.60
2023-04-29T20:50:58.840Z,3.90
2023-04-29T20:53:26.253Z,4.50
2023-04-29T20:55:53.424Z,4.80
2023-04-29T20:58:21.071Z,4.10
2023-04-29T21:00:48.882Z,3.50
2023-04-29T21:03:17.292Z,3.70
2023-04-29T21:05:44.523Z,3.40
2023-04-29T21:08:11.827Z,3.40
2023-04-29T21:10:39.385Z,3.80
2023-04-29T21:13:06.743Z,4.10
2023-04-29T21:15:34.033Z,3.60
2023-04-29T21:18:02.107Z,3.40
2023-04-29T21:20:30.641Z,3.00
2023-04-29T21:22:57.916Z,3.70
2023-04-29T21:25:27.459Z,6.00
2023-04-29T21:27:54.655Z,5.30
2023-04-29T21:30:21.827Z,4.30
2023-04-29T21:32:49.009Z,3.20
2023-04-29T21:35:16.237Z,3.50
2023-04-29T21:37:43.461Z,4.40
2023-04-29T21:40:12.217Z,3.60
2023-04-29T21:42:39.833Z,4.60
2023-04-29T21:45:07.349Z,4.20
2023-04-29T21:47:34.592Z,4.10
2023-04-29T21:50:01.821Z,4.70
2023-04-29T21:52:31.223Z,4.70
2023-04-29T21:54:58.467Z,4.90
2023-04-29T21:57:42.794Z,4.50
2023-04-29T22:00:21.152Z,4.20
2023-04-29T22:02:48.402Z,4.00
2023-04-29T22:05:15.890Z,4.30
2023-04-29T22:07:46.299Z,3.90
2023-04-29T22:10:19.001Z,4.20
2023-04-29T22:12:49.899Z,3.80
2023-04-29T22:15:44.252Z,4.80
2023-04-29T22:18:11.519Z,4.50
2023-04-29T22:20:40.512Z,4.60
2023-04-29T22:23:07.740Z,5.80
2023-04-29T22:25:34.964Z,5.00
2023-04-29T22:28:02.201Z,4.90
2023-04-29T22:30:29.350Z,6.10
2023-04-29T22:32:57.019Z,5.40
2023-04-29T22:35:25.867Z,6.70
2023-04-29T22:37:53.056Z,6.60
2023-04-29T22:40:20.945Z,6.10
2023-04-29T22:42:49.872Z,6.20
2023-04-29T22:45:18.480Z,6.40
2023-04-29T22:47:45.794Z,5.80
2023-04-29T22:50:13.080Z,6.50
2023-04-29T22:52:40.323Z,6.30
2023-04-29T22:55:08.576Z,7.00
2023-04-29T22:57:37.551Z,7.00
2023-04-29T23:00:09.345Z,7.90
2023-04-29T23:02:37.261Z,7.70
2023-04-29T23:05:04.812Z,7.20
2023-04-29T23:07:32.105Z,7.50
2023-04-29T23:09:59.392Z,8.00
2023-04-29T23:12:26.627Z,7.00
2023-04-29T23:14:53.973Z,7.60
2023-04-29T23:17:21.249Z,7.40
2023-04-29T23:19:50.501Z,7.50
2023-04-29T23:22:18.017Z,6.80
2023-04-29T23:24:52.889Z,7.50
2023-04-29T23:27:20.144Z,7.10
2023-04-29T23:29:47.334Z,6.90
2023-04-29T23:32:15.813Z,7.00
2023-04-29T23:34:43.008Z,6.70
2023-04-29T23:37:14.013Z,6.60
2023-04-29T23:39:41.332Z,8.00
2023-04-29T23:42:10.170Z,7.60
2023-04-29T23:44:40.175Z,8.10
2023-04-29T23:47:08.417Z,8.10
2023-04-29T23:49:35.937Z,8.00
2023-04-29T23:52:07.919Z,8.40
2023-04-29T23:54:35.279Z,7.30
2023-04-29T23:57:03.981Z,8.00
2023-04-29T23:59:31.704Z,8.50
